Milan, IL (61264)

10:56 PM CST on February 13, 2016 (GMT -0600)
APRSWXNET | | Change Station
CLOSE
Current Station
Personal Weather Station
Location: Milan, IL
Elevation: 652 ft
Nearby Weather Stations
Active Advisory: Winter Weather Advisory

Elev 652 ft 41.42 °N, 90.55 °W | Updated 52 minutes ago

Overcast
Overcast
16 °F
Feels Like 16 °F
N
2
Wind Variable Wind from SSE
Gusts 8.0 mph

Today
High -- | Low -- °F
--% Chance of Precip.
Yesterday
High -- | Low -- °F
Precip. -- in
Pressure 30.45 in
Visibility 10.0 miles
Clouds Overcast 10000 ft
Windchill 16 °F
Dew Point -2 °F
Humidity 45%
Rainfall in
Snow Depth Not available.
7:00 AM 5:33 PM
Waxing Crescent, 37% visible
METAR KMLI 140452Z 11009KT 10SM OVC100 M08/M18 A3042 RMK AO2 SLP311 T10831178
Pressure 30.45 in
Visibility 10.0 miles
Clouds Overcast 10000 ft
Windchill 16 °F
Dew Point -2 °F
Humidity 45%
Rainfall in
Snow Depth Not available.
7:00 AM 5:33 PM
Waxing Crescent, 37% visible
METAR KMLI 140452Z 11009KT 10SM OVC100 M08/M18 A3042 RMK AO2 SLP311 T10831178

10-Day Weather Forecast

Almanac

Astronomy

Feb. 13, 2016 Rise Set
Actual Time
Civil Twilight
Nautical Twilight
Astronomical Twilight
Moon
Length of Visible Light
Length of Day
Tomorrow will be .
, % of the Moon is Illuminated

Today's Extremes

State Highs State Lows

Community

WunderPhotos

Upload Photos

1,892,746 photos uploaded!

WunderBlog® & News

Nearby

Air Quality

  Air Quality AQ Index Pollutant
Not available.

Snow Depth

Station Depth Elevation

Earthquake Activity

City Distance Mag. Time & Date
Minimum magnitude displayed is 2.5.

Coastal Water Temperatures

Place Temperature

Stations

Nearby Weather Stations

Station Location Temp. Windchill Dew Point Humidity Wind Precip. Elev Updated Type
                   

Watches & Warnings

Winter Weather Advisory
Issued: 7:52 PM CST Feb. 13, 2016 – National Weather Service

... Winter Weather Advisory now in effect from midnight tonight to
6 PM CST Sunday...

* timing... overnight and continuing through Sunday.

* Snow accumulations... 3 to 5 inches.

* Wind... southeast 5 to 15 mph with gusts up to 25 mph overnight
and much of Sunday morning.

* Visibilities... less than a mile in the heavier snow at times.

* Impacts... snow covered and hazardous roads and low visibility
in heavier snowfall.

Precautionary/preparedness actions...

A Winter Weather Advisory for snow means that periods of snow
will cause travel difficulties. Be prepared for slick... snow
covered roads and limited visibilities... and be careful while
driving.